Time;durP1;ratioP1;P1;durP2;ratioP2;P2;SDS_P1;SDS_P2;PMS_P1;PMS_P2;Temp;Humidity;BMP_temperature;BMP_pressure;BME280_temperature;BME280_humidity;BME280_pressure;Samples;Min_cycle;Max_cycle;Signal;HPM_P1;HPM_P2
2023/10/02 00:02:05;;;;;;;34.47;15.45;;;17.80;99.90;;;;;;4936920;29;20571;-79
2023/10/02 00:04:51;;;;;;;30.85;13.70;;;17.70;99.90;;;;;;4925398;29;20055;-76
2023/10/02 00:07:42;;;;;;;32.90;14.32;;;17.70;99.90;;;;;;4924081;29;20083;-76
2023/10/02 00:10:30;;;;;;;27.98;13.50;;;17.70;99.90;;;;;;4937033;29;20467;-82
2023/10/02 00:13:18;;;;;;;29.85;13.60;;;17.70;99.90;;;;;;4936983;29;20138;-81
2023/10/02 00:16:08;;;;;;;30.15;13.60;;;17.70;99.90;;;;;;4953907;29;20051;-76
2023/10/02 00:18:54;;;;;;;29.73;12.80;;;17.70;99.90;;;;;;4937115;29;20067;-80
2023/10/02 00:21:42;;;;;;;28.85;13.00;;;17.70;99.90;;;;;;4954009;28;20155;-76
2023/10/02 00:24:28;;;;;;;31.48;14.02;;;17.70;99.90;;;;;;4937328;29;20051;-81
2023/10/02 00:27:14;;;;;;;30.65;13.40;;;17.70;99.90;;;;;;4937100;29;20099;-77
2023/10/02 00:30:07;;;;;;;30.35;13.82;;;17.70;99.90;;;;;;4936345;29;20078;-76
2023/10/02 00:32:53;;;;;;;32.47;14.43;;;17.70;99.90;;;;;;4937115;29;20066;-81
2023/10/02 00:35:50;;;;;;;32.53;13.50;;;17.70;99.90;;;;;;4954359;28;20047;-82
2023/10/02 00:38:36;;;;;;;29.20;13.23;;;17.70;99.90;;;;;;4937128;29;20492;-80
2023/10/02 00:41:22;;;;;;;35.67;15.15;;;17.60;99.90;;;;;;4937271;29;20063;-77
2023/10/02 00:44:08;;;;;;;28.63;12.85;;;17.60;99.90;;;;;;4937231;29;20066;-80
2023/10/02 00:46:54;;;;;;;32.72;13.77;;;17.60;99.90;;;;;;4936583;29;20474;-84
2023/10/02 00:49:41;;;;;;;33.63;16.40;;;17.60;99.90;;;;;;4936859;29;20051;-79
2023/10/02 00:52:28;;;;;;;34.30;14.18;;;17.60;99.90;;;;;;4936261;29;20138;-80
2023/10/02 00:55:17;;;;;;;29.95;13.13;;;17.60;99.90;;;;;;4936971;29;20059;-80
2023/10/02 00:58:05;;;;;;;38.22;16.15;;;17.60;99.90;;;;;;4936922;29;20538;-80
2023/10/02 01:00:53;;;;;;;28.75;14.25;;;17.50;99.90;;;;;;4936544;29;20106;-79
2023/10/02 01:04:07;;;;;;;29.80;14.98;;;17.50;99.90;;;;;;4936688;29;20055;-86
2023/10/02 01:06:54;;;;;;;31.67;14.02;;;17.50;99.90;;;;;;4935541;29;20122;-79
2023/10/02 01:09:41;;;;;;;35.70;16.08;;;17.40;99.90;;;;;;4936619;29;20058;-82
2023/10/02 01:12:38;;;;;;;32.53;14.82;;;17.40;99.90;;;;;;4936525;29;20055;-81
2023/10/02 01:15:26;;;;;;;30.55;14.57;;;17.40;99.90;;;;;;4936016;29;20055;-74
2023/10/02 01:18:21;;;;;;;36.92;17.90;;;17.30;99.90;;;;;;4936337;29;20058;-80
2023/10/02 01:21:18;;;;;;;36.13;15.73;;;17.30;99.90;;;;;;4935321;29;20047;-79
2023/10/02 01:24:07;;;;;;;28.90;15.35;;;17.30;99.90;;;;;;4953400;28;20059;-78
2023/10/02 01:26:54;;;;;;;35.42;17.02;;;17.30;99.90;;;;;;4936235;29;20125;-81
2023/10/02 01:29:42;;;;;;;31.52;15.38;;;17.30;99.90;;;;;;4935663;29;20075;-74
2023/10/02 01:32:29;;;;;;;32.22;14.50;;;17.20;99.90;;;;;;4953528;28;20051;-77
2023/10/02 01:35:18;;;;;;;40.95;16.67;;;17.20;99.90;;;;;;4936532;29;20416;-75
2023/10/02 01:38:12;;;;;;;31.13;14.57;;;17.10;99.90;;;;;;4953324;28;20089;-80
2023/10/02 01:41:03;;;;;;;31.35;15.35;;;17.10;99.90;;;;;;4936505;29;20097;-81
2023/10/02 01:43:49;;;;;;;34.40;15.43;;;17.20;99.90;;;;;;4953263;28;20150;-82
2023/10/02 01:46:49;;;;;;;35.78;14.18;;;17.10;99.90;;;;;;4953184;28;20055;-80
2023/10/02 01:49:36;;;;;;;31.15;14.50;;;17.10;99.90;;;;;;4952970;28;20570;-77
2023/10/02 01:52:21;;;;;;;30.38;14.32;;;17.10;99.90;;;;;;4936114;29;20048;-79
2023/10/02 01:55:08;;;;;;;34.10;14.98;;;17.10;99.90;;;;;;4936413;29;20063;-78
2023/10/02 01:57:54;;;;;;;28.38;13.48;;;17.10;99.90;;;;;;4935860;29;20054;-82
2023/10/02 02:00:40;;;;;;;32.33;15.45;;;17.10;99.90;;;;;;4952949;28;20055;-79
2023/10/02 02:03:28;;;;;;;34.40;15.05;;;17.10;99.90;;;;;;4936036;29;20063;-73
2023/10/02 02:06:21;;;;;;;31.85;14.65;;;17.10;99.90;;;;;;4953135;28;20106;-80
2023/10/02 02:09:18;;;;;;;32.47;15.30;;;17.00;99.90;;;;;;4952798;28;20476;-77
2023/10/02 02:12:06;;;;;;;31.80;14.57;;;17.00;99.90;;;;;;4953201;28;20052;-76
2023/10/02 02:14:52;;;;;;;36.08;15.32;;;17.00;99.90;;;;;;4953008;28;20416;-75
2023/10/02 02:17:38;;;;;;;33.22;15.25;;;17.00;99.90;;;;;;4953324;28;20078;-79
2023/10/02 02:20:44;;;;;;;32.83;14.77;;;17.00;99.90;;;;;;4936847;29;20056;-77
2023/10/02 02:23:31;;;;;;;33.78;14.90;;;17.00;99.90;;;;;;4939554;29;20126;-76
2023/10/02 02:26:21;;;;;;;33.83;16.77;;;17.00;99.90;;;;;;4938874;29;20134;-81
2023/10/02 02:29:26;;;;;;;37.72;17.52;;;16.90;99.90;;;;;;4956171;28;20082;-80
2023/10/02 02:32:13;;;;;;;34.70;17.88;;;17.00;99.90;;;;;;4939488;29;20118;-78
2023/10/02 02:35:06;;;;;;;38.85;17.15;;;16.90;99.90;;;;;;4939043;29;20051;-76
2023/10/02 02:37:52;;;;;;;38.92;17.30;;;16.90;99.90;;;;;;4939255;29;20055;-77
2023/10/02 02:40:38;;;;;;;41.60;17.65;;;16.90;99.90;;;;;;4957234;28;20099;-85
2023/10/02 02:43:27;;;;;;;37.40;17.17;;;16.90;99.90;;;;;;4939143;29;20065;-86
2023/10/02 02:46:17;;;;;;;34.83;17.80;;;16.90;99.90;;;;;;4955478;29;20518;-80
2023/10/02 02:49:03;;;;;;;34.47;17.50;;;16.90;99.90;;;;;;4955815;28;20068;-79
2023/10/02 02:51:50;;;;;;;37.00;18.42;;;16.90;99.90;;;;;;4955522;29;20451;-76
2023/10/02 02:54:36;;;;;;;36.65;17.48;;;16.90;99.90;;;;;;4956015;28;20055;-77
2023/10/02 02:57:27;;;;;;;35.38;16.80;;;16.90;99.90;;;;;;4956098;28;20051;-79
2023/10/02 03:00:32;;;;;;;36.92;18.88;;;16.80;99.90;;;;;;4956059;28;20059;-78
2023/10/02 03:03:32;;;;;;;40.63;18.70;;;16.80;99.90;;;;;;4938888;29;20405;-79
2023/10/02 03:06:22;;;;;;;36.00;18.48;;;16.70;99.90;;;;;;4938930;29;20070;-75
2023/10/02 03:09:08;;;;;;;37.67;19.10;;;16.70;99.90;;;;;;4937993;29;20531;-81
2023/10/02 03:11:54;;;;;;;37.42;18.30;;;16.60;99.90;;;;;;4939020;29;20149;-80
2023/10/02 03:14:43;;;;;;;41.30;18.48;;;16.60;99.90;;;;;;4938317;29;20419;-78
2023/10/02 03:17:29;;;;;;;42.40;19.02;;;16.60;99.90;;;;;;4954908;29;20515;-76
2023/10/02 03:20:24;;;;;;;35.60;16.83;;;16.50;99.90;;;;;;4938054;28;20051;-78
2023/10/02 03:23:11;;;;;;;37.80;19.63;;;16.50;99.90;;;;;;4937394;29;20067;-79
2023/10/02 03:25:58;;;;;;;37.97;18.65;;;16.40;99.90;;;;;;4936911;29;20062;-76
2023/10/02 03:28:44;;;;;;;44.10;20.73;;;16.40;99.90;;;;;;4937240;29;20199;-78
2023/10/02 03:31:36;;;;;;;41.17;19.02;;;16.40;99.90;;;;;;4954652;28;20051;-84
2023/10/02 03:34:28;;;;;;;43.35;20.50;;;16.40;99.90;;;;;;4954161;28;20053;-75
2023/10/02 03:37:15;;;;;;;44.90;20.77;;;16.30;99.90;;;;;;4953708;29;20508;-73
2023/10/02 03:40:13;;;;;;;51.15;22.27;;;16.30;99.90;;;;;;4937068;29;20054;-84
2023/10/02 03:43:18;;;;;;;43.85;21.70;;;16.30;99.90;;;;;;4954468;28;20055;-77
2023/10/02 03:46:13;;;;;;;42.13;20.63;;;16.30;99.90;;;;;;4939891;29;20486;-75
2023/10/02 03:49:01;;;;;;;43.75;22.05;;;16.30;99.90;;;;;;4953925;28;20322;-86
2023/10/02 03:51:50;;;;;;;45.08;21.05;;;16.30;99.90;;;;;;4954559;28;20062;-87
2023/10/02 03:54:36;;;;;;;43.75;21.60;;;16.30;99.90;;;;;;4954168;28;20047;-79
2023/10/02 03:57:47;;;;;;;44.88;20.42;;;16.30;99.90;;;;;;4954545;28;20051;-81
2023/10/02 04:00:54;;;;;;;45.30;22.45;;;16.30;99.90;;;;;;4953321;29;20066;-82
2023/10/02 04:03:55;;;;;;;47.97;21.08;;;16.40;99.90;;;;;;4954120;28;20051;-82
2023/10/02 04:06:44;;;;;;;45.47;20.73;;;16.40;99.90;;;;;;4936369;29;20043;-85
2023/10/02 04:09:30;;;;;;;53.22;23.10;;;16.40;99.90;;;;;;4936585;29;20089;-84
2023/10/02 04:12:22;;;;;;;42.22;21.67;;;16.40;99.90;;;;;;4936834;29;20047;-84
2023/10/02 04:15:11;;;;;;;47.90;23.48;;;16.40;99.90;;;;;;4936607;29;20146;-87
2023/10/02 04:17:57;;;;;;;43.85;22.00;;;16.40;99.90;;;;;;4953033;29;20055;-85
2023/10/02 04:20:51;;;;;;;42.50;21.35;;;16.40;99.90;;;;;;4912682;28;1194508;-83
2023/10/02 04:23:42;;;;;;;49.30;22.50;;;16.40;99.90;;;;;;4937171;29;20051;-80
2023/10/02 04:26:29;;;;;;;45.63;21.60;;;16.50;99.90;;;;;;4936607;29;20063;-84
2023/10/02 04:29:26;;;;;;;44.53;22.48;;;16.50;99.90;;;;;;4954376;28;20058;-87
2023/10/02 04:32:14;;;;;;;46.60;21.58;;;16.50;99.90;;;;;;4954565;28;20051;-83
2023/10/02 04:35:02;;;;;;;51.53;23.70;;;16.40;99.90;;;;;;4954317;28;20058;-82
2023/10/02 04:37:48;;;;;;;50.60;23.92;;;16.40;99.90;;;;;;4954320;28;20051;-84
2023/10/02 04:40:55;;;;;;;44.88;22.35;;;16.40;99.90;;;;;;4954469;28;20047;-83
2023/10/02 04:43:42;;;;;;;51.95;24.55;;;16.40;99.90;;;;;;4953855;28;20451;-85
2023/10/02 04:46:32;;;;;;;55.67;26.25;;;16.40;99.90;;;;;;4953414;29;20500;-79
2023/10/02 04:49:18;;;;;;;51.65;24.05;;;16.30;99.90;;;;;;4953952;28;20051;-85
2023/10/02 04:52:04;;;;;;;58.50;25.15;;;16.30;99.90;;;;;;4954006;28;20051;-85
2023/10/02 04:55:06;;;;;;;53.40;24.02;;;16.30;99.90;;;;;;4936512;29;20062;-81
2023/10/02 04:57:54;;;;;;;52.63;24.55;;;16.20;99.90;;;;;;4937058;29;20054;-82
2023/10/02 05:03:49;;;;;;;46.08;24.17;;;16.10;99.90;;;;;;4953884;28;20050;-86
2023/10/02 05:06:44;;;;;;;54.83;26.10;;;16.10;99.90;;;;;;4936674;29;20122;-81
2023/10/02 05:09:38;;;;;;;52.05;26.55;;;16.10;99.90;;;;;;4936223;29;20061;-82
2023/10/02 05:12:26;;;;;;;58.78;28.83;;;16.10;99.90;;;;;;4953785;28;20051;-85
2023/10/02 05:15:20;;;;;;;61.28;27.45;;;16.10;99.90;;;;;;4936071;29;20081;-86
2023/10/02 05:18:09;;;;;;;59.17;28.60;;;16.10;99.90;;;;;;4953682;28;20504;-85
2023/10/02 05:20:55;;;;;;;63.83;29.33;;;16.10;99.90;;;;;;4936204;29;20503;-74
2023/10/02 05:23:43;;;;;;;64.60;29.38;;;16.10;99.90;;;;;;4953573;28;20131;-83
2023/10/02 05:26:36;;;;;;;60.08;28.33;;;16.10;99.90;;;;;;4953528;28;20491;-80
2023/10/02 05:29:41;;;;;;;56.80;27.80;;;16.10;99.90;;;;;;4953640;28;20059;-79
2023/10/02 05:32:31;;;;;;;61.58;27.52;;;16.00;99.90;;;;;;4936383;29;20520;-76
2023/10/02 05:35:18;;;;;;;55.35;28.92;;;16.00;99.90;;;;;;4952795;29;20059;-86
2023/10/02 05:38:08;;;;;;;64.00;27.75;;;16.00;99.90;;;;;;4936305;29;20055;-84
2023/10/02 05:40:58;;;;;;;59.55;28.70;;;16.00;99.90;;;;;;4936105;29;20186;-83
2023/10/02 05:43:55;;;;;;;66.10;30.67;;;16.00;99.90;;;;;;4953808;28;20066;-84
2023/10/02 05:47:04;;;;;;;60.47;28.75;;;16.00;99.90;;;;;;4936318;29;20488;-80
2023/10/02 05:49:53;;;;;;;61.13;29.00;;;16.00;99.90;;;;;;4953217;29;20043;-84
2023/10/02 05:52:48;;;;;;;61.63;30.10;;;16.00;99.90;;;;;;4936302;29;20404;-79
2023/10/02 05:58:41;;;;;;;67.55;29.83;;;15.90;99.90;;;;;;4957112;28;20059;-75
2023/10/02 06:01:33;;;;;;;57.35;29.25;;;15.90;99.90;;;;;;4939758;29;20058;-86
2023/10/02 06:04:23;;;;;;;63.90;29.75;;;15.90;99.90;;;;;;4939675;29;20164;-81
2023/10/02 06:07:12;;;;;;;61.38;29.80;;;15.90;99.90;;;;;;4939613;29;20206;-81
2023/10/02 06:10:00;;;;;;;57.90;29.23;;;16.00;99.90;;;;;;4956816;28;20063;-78
2023/10/02 06:12:47;;;;;;;62.97;30.35;;;15.90;99.90;;;;;;4939775;29;20500;-79
2023/10/02 06:15:43;;;;;;;62.78;30.08;;;15.90;99.90;;;;;;4957109;28;20055;-81
2023/10/02 06:18:29;;;;;;;;;;;15.90;99.90;;;;;;4940128;29;20122;-86
2023/10/02 06:21:15;;;;;;;59.15;28.48;;;16.00;99.90;;;;;;4955801;28;20067;-84
2023/10/02 06:24:01;;;;;;;52.72;27.73;;;15.90;99.90;;;;;;4956731;28;20063;-82
2023/10/02 06:26:57;;;;;;;60.95;27.42;;;16.00;99.90;;;;;;4956685;28;20059;-82
2023/10/02 06:29:44;;;;;;;54.75;27.65;;;16.00;99.90;;;;;;4938763;29;20063;-84
2023/10/02 06:32:32;;;;;;;62.38;29.52;;;16.00;99.90;;;;;;4939507;29;20114;-82
2023/10/02 06:35:20;;;;;;;52.35;25.80;;;16.10;99.90;;;;;;4939666;29;20493;-77
2023/10/02 06:38:15;;;;;;;59.22;27.45;;;16.10;99.90;;;;;;4939712;29;20055;-84
2023/10/02 06:41:09;;;;;;;52.97;27.15;;;16.10;99.90;;;;;;4955812;29;20055;-81
2023/10/02 06:43:55;;;;;;;53.60;26.77;;;16.10;99.90;;;;;;4956473;28;20057;-82
2023/10/02 06:46:53;;;;;;;53.13;25.67;;;16.20;99.90;;;;;;4939396;29;20067;-78
2023/10/02 06:49:45;;;;;;;56.45;28.45;;;16.20;99.90;;;;;;4939641;28;20070;-81
2023/10/02 06:52:33;;;;;;;49.65;26.52;;;16.30;99.90;;;;;;4939095;29;20554;-80
2023/10/02 06:55:19;;;;;;;53.33;26.13;;;16.30;99.90;;;;;;4956113;28;20051;-77
2023/10/02 06:58:07;;;;;;;52.97;24.33;;;16.30;99.90;;;;;;4956288;28;20097;-81
2023/10/02 07:01:01;;;;;;;53.30;26.05;;;16.40;99.90;;;;;;4956351;28;20059;-82
2023/10/02 07:03:56;;;;;;;50.00;24.70;;;16.40;99.90;;;;;;4955921;28;20055;-80
2023/10/02 07:06:42;;;;;;;47.60;25.27;;;16.40;99.90;;;;;;4942280;29;20051;-75
2023/10/02 07:09:28;;;;;;;52.25;26.15;;;16.50;99.90;;;;;;4937873;29;20058;-82
2023/10/02 07:12:15;;;;;;;49.58;25.48;;;16.50;99.90;;;;;;4955930;28;20055;-78
2023/10/02 07:15:13;;;;;;;51.63;25.88;;;16.60;99.90;;;;;;4938170;29;20051;-81
2023/10/02 07:18:04;;;;;;;47.42;24.88;;;16.70;99.90;;;;;;4955642;28;20067;-79
2023/10/02 07:20:53;;;;;;;49.70;24.95;;;16.70;99.90;;;;;;4938071;29;20058;-78
2023/10/02 07:23:39;;;;;;;54.22;25.63;;;16.80;99.90;;;;;;4938748;29;20146;-76
2023/10/02 07:29:38;;;;;;;51.35;25.52;;;16.80;99.90;;;;;;4955686;28;20150;-79
2023/10/02 07:32:26;;;;;;;51.17;24.45;;;16.80;99.90;;;;;;4938720;29;20515;-83
2023/10/02 07:35:25;;;;;;;46.40;24.23;;;16.90;99.90;;;;;;4938669;29;20051;-87
2023/10/02 07:38:12;;;;;;;47.38;24.35;;;16.90;99.90;;;;;;4959885;28;20393;-75
2023/10/02 07:41:06;;;;;;;55.88;26.80;;;16.90;99.90;;;;;;4948956;29;20170;-73
2023/10/02 07:43:53;;;;;;;46.25;24.02;;;16.90;99.90;;;;;;4948848;29;20051;-78
2023/10/02 07:46:40;;;;;;;50.05;24.02;;;17.00;99.90;;;;;;4948883;29;20063;-76
2023/10/02 07:49:27;;;;;;;49.80;23.88;;;17.10;99.90;;;;;;4945781;29;20109;-81
2023/10/02 07:52:26;;;;;;;51.05;23.83;;;17.20;99.90;;;;;;4938347;29;20059;-81
2023/10/02 07:55:13;;;;;;;49.53;23.95;;;17.30;99.90;;;;;;4954375;29;20059;-84
2023/10/02 07:58:00;;;;;;;51.55;23.27;;;17.40;99.90;;;;;;4937706;29;20051;-79
2023/10/02 08:00:49;;;;;;;49.45;25.40;;;17.50;99.90;;;;;;4954957;28;20063;-83
2023/10/02 08:03:43;;;;;;;45.83;23.67;;;17.50;99.90;;;;;;4955043;28;20683;-78
2023/10/02 08:06:36;;;;;;;45.50;23.15;;;17.60;99.90;;;;;;4954886;28;20070;-77
2023/10/02 08:09:38;;;;;;;47.13;23.25;;;17.60;99.90;;;;;;4954501;28;20055;-84
2023/10/02 08:12:30;;;;;;;48.55;24.48;;;17.70;99.90;;;;;;4937413;29;20095;-79
2023/10/02 08:15:32;;;;;;;50.78;23.63;;;17.80;99.90;;;;;;4937307;29;20138;-78
2023/10/02 08:18:19;;;;;;;48.42;23.23;;;17.80;99.90;;;;;;4936535;29;20586;-73
2023/10/02 08:21:05;;;;;;;46.15;23.38;;;17.90;99.90;;;;;;4953654;28;20063;-81
2023/10/02 08:23:52;;;;;;;44.53;21.88;;;17.90;99.90;;;;;;4954735;28;20130;-81
2023/10/02 08:26:45;;;;;;;42.67;22.00;;;17.90;99.90;;;;;;4937374;29;20061;-76
2023/10/02 08:29:33;;;;;;;47.83;22.80;;;18.00;99.90;;;;;;4954811;28;20571;-78
2023/10/02 08:32:28;;;;;;;51.70;24.08;;;18.10;99.90;;;;;;4954738;28;20063;-75
2023/10/02 08:35:15;;;;;;;49.08;24.63;;;18.20;99.90;;;;;;4940869;29;20062;-73
2023/10/02 08:38:04;;;;;;;49.47;23.73;;;18.30;99.90;;;;;;4937143;29;20492;-79
2023/10/02 08:41:10;;;;;;;41.92;20.92;;;18.40;99.90;;;;;;4954439;28;20055;-77
2023/10/02 08:44:00;;;;;;;50.55;22.48;;;18.40;99.90;;;;;;4936389;29;20492;-76
2023/10/02 08:46:48;;;;;;;46.50;21.95;;;18.40;99.90;;;;;;4953879;28;20061;-74
2023/10/02 08:49:36;;;;;;;54.63;23.02;;;18.50;99.90;;;;;;4953998;28;20067;-74
2023/10/02 08:52:22;;;;;;;46.13;22.73;;;18.60;99.90;;;;;;4954359;28;20122;-77
2023/10/02 08:56:21;;;;;;;51.00;21.95;;;18.60;99.90;;;;;;4954242;28;20428;-77
2023/10/02 08:58:35;;;;;;;46.58;21.67;;;18.60;99.90;;;;;;4953630;28;20059;-78
2023/10/02 09:01:21;;;;;;;47.55;21.75;;;18.70;99.90;;;;;;4953934;28;20055;-76
2023/10/02 09:07:45;;;;;;;;;;;18.90;99.90;;;;;;4936998;29;20065;-81
2023/10/02 09:10:35;;;;;;;45.15;21.88;;;18.90;99.90;;;;;;4934533;29;20410;-74
2023/10/02 09:13:24;;;;;;;44.00;21.45;;;19.00;99.90;;;;;;4935775;29;20050;-75
2023/10/02 09:16:14;;;;;;;49.30;23.95;;;19.00;99.90;;;;;;4936038;29;20055;-74
2023/10/02 09:19:28;;;;;;;51.33;24.70;;;19.00;99.90;;;;;;4936212;29;20082;-75
2023/10/02 09:22:19;;;;;;;51.58;25.27;;;19.00;99.90;;;;;;4936136;29;20122;-82
2023/10/02 09:25:12;;;;;;;48.47;22.73;;;19.20;99.90;;;;;;4936801;29;20053;-74
2023/10/02 09:28:00;;;;;;;46.83;23.95;;;19.20;99.90;;;;;;4953556;28;20090;-81
2023/10/02 09:30:49;;;;;;;44.25;23.15;;;19.30;99.90;;;;;;4936055;29;20051;-79
2023/10/02 09:33:37;;;;;;;42.58;22.15;;;19.40;99.90;;;;;;4953474;28;20139;-78
2023/10/02 09:36:36;;;;;;;43.40;22.75;;;19.50;99.90;;;;;;4935871;29;20538;-79
2023/10/02 09:39:38;;;;;;;47.08;22.75;;;19.50;99.90;;;;;;4936418;29;20043;-79
2023/10/02 09:42:25;;;;;;;47.13;22.58;;;19.60;99.90;;;;;;4923649;29;20399;-82
2023/10/02 09:45:15;;;;;;;45.42;21.67;;;19.60;99.90;;;;;;4935638;29;20147;-85
2023/10/02 09:48:46;;;;;;;45.65;22.25;;;19.60;99.90;;;;;;4923065;29;20055;-80
2023/10/02 09:51:14;;;;;;;42.25;21.98;;;19.60;99.90;;;;;;4935972;29;20134;-85
2023/10/02 09:54:08;;;;;;;45.08;22.55;;;19.60;99.90;;;;;;4936046;29;20414;-78
2023/10/02 09:57:13;;;;;;;48.47;20.23;;;19.60;99.90;;;;;;4936115;29;20059;-72
2023/10/02 10:00:33;;;;;;;36.67;19.38;;;19.70;99.90;;;;;;4934722;29;20074;-74
2023/10/02 10:03:47;;;;;;;39.37;20.90;;;19.80;99.90;;;;;;4935065;29;20058;-74
2023/10/02 10:06:48;;;;;;;41.35;21.02;;;19.90;99.90;;;;;;4935846;29;21149;-79
2023/10/02 10:09:50;;;;;;;41.05;19.25;;;20.00;99.90;;;;;;4935143;29;20562;-74
2023/10/02 10:12:53;;;;;;;38.50;20.10;;;20.20;99.90;;;;;;4936233;29;20150;-73
2023/10/02 10:15:40;;;;;;;36.78;20.05;;;20.50;99.90;;;;;;4935713;29;20058;-78
2023/10/02 10:18:47;;;;;;;39.22;20.02;;;20.70;99.90;;;;;;4936296;29;20119;-81
2023/10/02 10:21:56;;;;;;;38.35;18.98;;;20.80;99.90;;;;;;4935638;29;20063;-84
2023/10/02 10:24:55;;;;;;;31.50;17.88;;;21.10;99.90;;;;;;4922862;29;20143;-85
2023/10/02 10:27:52;;;;;;;35.08;16.40;;;21.20;99.90;;;;;;4935668;29;20496;-86
2023/10/02 10:30:46;;;;;;;34.20;17.70;;;21.30;99.90;;;;;;4935990;29;20063;-86
2023/10/02 10:33:34;;;;;;;28.02;16.75;;;21.50;99.90;;;;;;4935684;29;20051;-82
2023/10/02 10:36:35;;;;;;;31.55;16.30;;;21.50;99.90;;;;;;4935864;29;20058;-80
2023/10/02 10:39:51;;;;;;;37.25;18.20;;;21.80;99.90;;;;;;4935137;29;20051;-85
2023/10/02 10:42:59;;;;;;;31.40;16.60;;;22.20;99.90;;;;;;4939201;29;20066;-85
2023/10/02 10:45:48;;;;;;;27.13;14.88;;;22.50;99.90;;;;;;4939182;29;20530;-81
2023/10/02 10:48:34;;;;;;;33.85;16.60;;;22.80;99.90;;;;;;4938820;29;20086;-80
2023/10/02 10:51:21;;;;;;;28.13;14.90;;;22.90;99.90;;;;;;4925853;29;20048;-86
2023/10/02 10:54:54;;;;;;;34.38;15.43;;;23.10;99.90;;;;;;4938887;29;20114;-83
2023/10/02 10:57:27;;;;;;;26.85;13.55;;;23.20;99.90;;;;;;4938816;29;20059;-86
2023/10/02 11:00:26;;;;;;;29.95;15.93;;;23.50;99.90;;;;;;4939032;29;20066;-77
2023/10/02 11:03:15;;;;;;;27.38;13.75;;;23.10;99.90;;;;;;4938626;29;20047;-77
2023/10/02 11:06:06;;;;;;;24.58;12.18;;;23.60;99.90;;;;;;4938339;29;20523;-83
2023/10/02 11:09:12;;;;;;;21.35;11.57;;;23.60;99.90;;;;;;4938978;29;20086;-80
2023/10/02 11:11:58;;;;;;;24.75;13.10;;;23.70;99.90;;;;;;4938815;29;20070;-83
2023/10/02 11:14:44;;;;;;;25.88;12.30;;;23.80;99.90;;;;;;4955364;29;20499;-83
2023/10/02 11:17:32;;;;;;;24.48;12.82;;;23.60;99.90;;;;;;4938171;29;20055;-85
2023/10/02 11:20:31;;;;;;;23.60;12.30;;;23.60;99.90;;;;;;4955463;28;20147;-82
2023/10/02 11:23:45;;;;;;;25.65;12.43;;;23.60;99.90;;;;;;4938786;29;20137;-82
2023/10/02 11:26:31;;;;;;;24.08;12.18;;;23.70;99.90;;;;;;4938391;29;20222;-83
2023/10/02 11:29:20;;;;;;;25.35;13.20;;;23.50;99.90;;;;;;4938137;29;20142;-88
2023/10/02 11:32:20;;;;;;;21.88;12.80;;;23.30;99.90;;;;;;4938343;29;20145;-78
2023/10/02 11:35:07;;;;;;;25.77;12.07;;;23.00;99.90;;;;;;4925066;29;20397;-84
2023/10/02 11:37:53;;;;;;;23.13;10.43;;;22.90;99.90;;;;;;4938490;29;20508;-83
2023/10/02 11:40:43;;;;;;;23.38;11.63;;;23.00;99.90;;;;;;4955597;28;20102;-82
2023/10/02 11:43:29;;;;;;;22.02;10.38;;;22.90;99.90;;;;;;4938337;29;20496;-81
2023/10/02 11:46:15;;;;;;;22.73;11.55;;;23.20;99.90;;;;;;4938056;29;20189;-76
2023/10/02 11:49:01;;;;;;;23.55;11.05;;;23.30;99.90;;;;;;4955605;28;20047;-76
2023/10/02 11:51:47;;;;;;;20.52;11.25;;;23.20;99.90;;;;;;4939029;28;20055;-79
2023/10/02 11:54:42;;;;;;;20.25;9.63;;;23.00;99.90;;;;;;4938350;29;20507;-82
2023/10/02 11:57:28;;;;;;;;;;;23.00;99.90;;;;;;4938053;29;20058;-87
2023/10/02 12:00:14;;;;;;;18.75;9.00;;;22.90;99.90;;;;;;4937352;29;20401;-78
2023/10/02 12:03:00;;;;;;;19.83;9.40;;;23.00;99.90;;;;;;4937388;29;20062;-79
2023/10/02 12:05:50;;;;;;;20.88;9.95;;;23.10;99.90;;;;;;4953423;29;20051;-81
2023/10/02 12:08:38;;;;;;;19.60;8.50;;;23.00;99.90;;;;;;4923888;29;20494;-80
2023/10/02 12:11:24;;;;;;;21.23;9.05;;;22.90;99.90;;;;;;4937838;29;20059;-81
2023/10/02 12:14:10;;;;;;;16.00;7.78;;;22.80;99.90;;;;;;4937533;29;20055;-81
2023/10/02 12:16:57;;;;;;;19.48;8.80;;;23.00;99.90;;;;;;4924147;29;20062;-84
2023/10/02 12:19:44;;;;;;;15.07;7.53;;;22.90;99.90;;;;;;4937354;29;20078;-80
2023/10/02 12:22:30;;;;;;;18.40;8.50;;;23.20;99.90;;;;;;4936582;29;20102;-78
2023/10/02 12:25:16;;;;;;;22.23;8.23;;;23.80;99.90;;;;;;4953810;29;20496;-82
2023/10/02 12:28:02;;;;;;;17.98;6.88;;;24.00;99.90;;;;;;4953879;29;20058;-78
2023/10/02 12:30:48;;;;;;;14.57;6.50;;;24.20;99.90;;;;;;4937325;29;20614;-81
2023/10/02 12:33:35;;;;;;;16.52;7.97;;;24.60;99.90;;;;;;4952533;29;20055;-76
2023/10/02 12:36:22;;;;;;;16.13;7.75;;;24.80;99.90;;;;;;4939720;29;20058;-79
2023/10/02 12:39:12;;;;;;;18.67;8.50;;;24.80;99.90;;;;;;4937152;29;20109;-80
2023/10/02 12:41:58;;;;;;;19.55;8.02;;;24.50;99.90;;;;;;4924726;29;20055;-81
2023/10/02 12:44:44;;;;;;;14.75;7.43;;;24.20;99.90;;;;;;4936680;29;20419;-74
2023/10/02 12:47:30;;;;;;;15.30;7.80;;;24.00;99.90;;;;;;4952504;29;20134;-75
2023/10/02 12:50:18;;;;;;;20.40;8.52;;;23.70;99.90;;;;;;4953671;29;20403;-76
2023/10/02 12:53:05;;;;;;;19.73;8.02;;;23.50;99.90;;;;;;4936506;29;20479;-75
2023/10/02 12:55:52;;;;;;;15.80;6.95;;;23.40;99.90;;;;;;4954019;29;20050;-78
2023/10/02 12:58:38;;;;;;;20.88;8.50;;;23.20;99.90;;;;;;4937190;29;20155;-74
2023/10/02 13:01:29;;;;;;;22.88;8.55;;;23.20;99.90;;;;;;4937300;29;20067;-82
2023/10/02 13:04:15;;;;;;;19.35;8.70;;;23.40;99.90;;;;;;4953852;28;20050;-77
2023/10/02 13:07:05;;;;;;;21.73;8.48;;;23.50;99.90;;;;;;4923486;29;20062;-75
2023/10/02 13:09:51;;;;;;;19.58;8.77;;;23.40;99.90;;;;;;4935708;29;20097;-75
2023/10/02 13:12:37;;;;;;;19.52;9.60;;;23.20;99.90;;;;;;4924038;29;20061;-77
2023/10/02 13:15:23;;;;;;;20.38;9.80;;;23.00;99.90;;;;;;4952051;29;20051;-76
2023/10/02 13:18:09;;;;;;;23.10;10.65;;;22.80;99.90;;;;;;4935835;29;20058;-79
2023/10/02 13:20:58;;;;;;;21.88;9.23;;;22.50;99.90;;;;;;4936486;29;20058;-81
2023/10/02 13:23:46;;;;;;;22.95;10.35;;;22.30;99.90;;;;;;4924204;29;20519;-74
2023/10/02 13:26:33;;;;;;;21.33;10.25;;;22.20;99.90;;;;;;4936827;28;20381;-76
2023/10/02 13:29:19;;;;;;;27.80;11.77;;;21.90;99.90;;;;;;4938004;28;20090;-73
2023/10/02 13:32:05;;;;;;;25.17;9.65;;;21.90;99.90;;;;;;4936453;29;20093;-81
2023/10/02 13:34:51;;;;;;;17.50;9.55;;;21.90;99.90;;;;;;4953565;28;20043;-84
2023/10/02 13:37:39;;;;;;;18.35;10.10;;;21.90;99.90;;;;;;4936332;29;20473;-87
2023/10/02 13:40:26;;;;;;;17.85;9.60;;;22.00;99.90;;;;;;4936506;29;20555;-86
2023/10/02 13:43:12;;;;;;;19.58;9.43;;;22.00;99.90;;;;;;4935961;29;20082;-84
2023/10/02 13:45:59;;;;;;;28.88;11.32;;;22.00;99.90;;;;;;4936277;29;20121;-85
2023/10/02 13:48:46;;;;;;;21.63;10.13;;;22.00;99.90;;;;;;4936166;29;20059;-84
2023/10/02 13:51:32;;;;;;;26.38;10.38;;;22.00;99.90;;;;;;4936389;29;20053;-84
2023/10/02 13:54:18;;;;;;;23.13;11.05;;;22.00;99.90;;;;;;4954080;28;20051;-81
2023/10/02 13:57:05;;;;;;;21.33;9.25;;;21.90;99.90;;;;;;4936561;29;20193;-73
2023/10/02 13:59:51;;;;;;;21.08;10.25;;;22.00;99.90;;;;;;4936664;29;20065;-76
2023/10/02 14:02:40;;;;;;;24.33;10.25;;;22.00;99.90;;;;;;4953796;28;20071;-73
2023/10/02 14:05:29;;;;;;;21.50;10.18;;;21.90;99.90;;;;;;4936425;29;20086;-74
2023/10/02 14:08:15;;;;;;;23.70;10.90;;;21.80;99.90;;;;;;4936322;29;20109;-77
2023/10/02 14:11:02;;;;;;;21.88;9.80;;;21.80;99.90;;;;;;4937315;29;20051;-85
2023/10/02 14:13:49;;;;;;;23.52;10.02;;;21.80;99.90;;;;;;4936737;29;20065;-81
2023/10/02 14:16:35;;;;;;;28.50;12.50;;;21.70;99.90;;;;;;4938717;29;20047;-80
2023/10/02 14:19:21;;;;;;;22.83;9.85;;;21.70;99.90;;;;;;4940196;29;20055;-73
2023/10/02 14:22:08;;;;;;;23.50;10.23;;;21.70;99.90;;;;;;4939745;29;20051;-81
2023/10/02 14:24:54;;;;;;;19.23;10.13;;;21.50;99.90;;;;;;4939612;29;20051;-80
2023/10/02 14:27:42;;;;;;;30.27;10.93;;;21.50;99.90;;;;;;4940099;29;20082;-77
2023/10/02 14:30:30;;;;;;;26.48;11.55;;;21.40;99.90;;;;;;4939230;29;20503;-82
2023/10/02 14:33:17;;;;;;;23.48;9.63;;;21.30;99.90;;;;;;4939488;29;20139;-80
2023/10/02 14:36:08;;;;;;;22.85;11.63;;;21.10;99.90;;;;;;4925572;29;20507;-78
2023/10/02 14:38:57;;;;;;;24.52;11.05;;;21.00;99.90;;;;;;4956494;29;20051;-73
2023/10/02 14:41:43;;;;;;;24.20;11.57;;;20.90;99.90;;;;;;4926601;29;20085;-77